createdAt,value
2019-05-22T00:00:46.735Z,15.31
2019-05-22T00:05:51.971Z,15.69
2019-05-22T00:10:58.289Z,15.78
2019-05-22T00:16:04.632Z,15.98
2019-05-22T00:21:10.288Z,15.87
2019-05-22T00:26:16.970Z,15.79
2019-05-22T00:31:21.622Z,15.56
2019-05-22T00:36:26.671Z,15.22
2019-05-22T00:41:32.957Z,14.89
2019-05-22T00:46:39.235Z,15.21
2019-05-22T00:51:47.362Z,15.17
2019-05-22T00:56:56.497Z,15.01
2019-05-22T01:02:05.446Z,14.43
2019-05-22T01:07:18.792Z,14.93
2019-05-22T01:12:44.018Z,14.62
2019-05-22T01:17:50.186Z,15.06
2019-05-22T01:22:59.440Z,14.85
2019-05-22T01:28:06.124Z,14.83
2019-05-22T01:33:12.509Z,14.74
2019-05-22T01:38:17.360Z,14.52
2019-05-22T01:43:22.309Z,14.25
2019-05-22T01:48:33.703Z,14.23
2019-05-22T01:53:38.662Z,14.66
2019-05-22T01:58:44.839Z,14.71
2019-05-22T02:03:50.981Z,14.26
2019-05-22T02:09:06.309Z,13.90
2019-05-22T02:14:14.525Z,13.54
2019-05-22T02:19:20.898Z,13.29
2019-05-22T02:24:26.667Z,13.95
2019-05-22T02:29:32.124Z,14.56
2019-05-22T02:34:37.592Z,14.28
2019-05-22T02:39:43.359Z,14.04
2019-05-22T02:44:48.990Z,13.88
2019-05-22T02:49:53.971Z,14.51
2019-05-22T02:54:59.021Z,14.19
2019-05-22T03:00:04.992Z,13.88
2019-05-22T03:05:10.519Z,14.33
2019-05-22T03:10:16.168Z,14.21
2019-05-22T03:15:23.630Z,14.87
2019-05-22T03:20:29.178Z,14.51
2019-05-22T03:25:33.940Z,14.85
2019-05-22T03:30:41.292Z,15.12
2019-05-22T03:35:51.762Z,15.10
2019-05-22T03:40:57.379Z,14.85
2019-05-22T03:46:05.406Z,15.27
2019-05-22T03:51:12.812Z,15.29
2019-05-22T03:56:17.651Z,15.34
2019-05-22T04:01:23.611Z,14.01
2019-05-22T04:06:28.979Z,15.28
2019-05-22T04:11:39.055Z,15.82
2019-05-22T04:16:45.092Z,16.33
2019-05-22T04:21:50.747Z,17.07
2019-05-22T04:26:55.751Z,17.59
2019-05-22T04:32:02.016Z,17.15
2019-05-22T04:37:09.945Z,18.18
2019-05-22T04:42:15.093Z,18.29
2019-05-22T04:47:19.833Z,18.50
2019-05-22T04:52:24.882Z,18.52
2019-05-22T04:57:31.479Z,19.24
2019-05-22T05:02:36.633Z,19.66
2019-05-22T05:07:42.082Z,19.25
2019-05-22T05:12:47.247Z,20.23
2019-05-22T05:17:52.082Z,20.29
2019-05-22T05:22:56.966Z,20.89
2019-05-22T05:28:03.175Z,21.22
2019-05-22T05:33:07.951Z,21.33
2019-05-22T05:38:14.537Z,20.90
2019-05-22T05:43:19.901Z,20.47
2019-05-22T05:48:24.641Z,21.54
2019-05-22T05:53:29.911Z,21.66
2019-05-22T05:58:34.904Z,21.78
2019-05-22T06:03:41.943Z,22.32
2019-05-22T06:08:46.482Z,22.75
2019-05-22T06:13:51.116Z,22.55
2019-05-22T06:18:57.164Z,22.68
2019-05-22T06:24:14.431Z,22.21
2019-05-22T06:29:20.713Z,23.05
2019-05-22T06:34:25.560Z,23.30
2019-05-22T06:39:30.506Z,23.24
2019-05-22T06:44:36.581Z,23.34
2019-05-22T06:49:41.584Z,23.79
2019-05-22T06:54:46.276Z,23.75
2019-05-22T07:00:09.350Z,23.33
2019-05-22T07:04:57.405Z,24.17
2019-05-22T07:10:02.474Z,23.98
2019-05-22T07:15:21.023Z,24.50
2019-05-22T07:20:26.483Z,24.47
2019-05-22T07:25:31.431Z,24.47
2019-05-22T07:30:36.483Z,24.50
2019-05-22T07:35:56.731Z,23.89
2019-05-22T07:40:50.653Z,24.34
2019-05-22T07:45:55.815Z,25.28
2019-05-22T07:51:02.537Z,25.23
2019-05-22T07:56:10.312Z,25.38
2019-05-22T08:01:16.047Z,24.73
2019-05-22T08:06:20.854Z,25.45
2019-05-22T08:11:26.239Z,24.40
2019-05-22T08:16:31.158Z,25.22
2019-05-22T08:21:36.107Z,25.26
2019-05-22T08:26:53.981Z,25.97
2019-05-22T08:31:47.643Z,25.06
2019-05-22T08:36:52.499Z,25.66
2019-05-22T08:41:58.267Z,25.97
2019-05-22T08:47:03.000Z,25.84
2019-05-22T08:52:22.595Z,25.70
2019-05-22T08:57:16.180Z,26.52
2019-05-22T09:02:21.031Z,26.60
2019-05-22T09:07:25.769Z,25.88
2019-05-22T09:12:31.228Z,26.48
2019-05-22T09:17:36.801Z,26.41
2019-05-22T09:22:41.767Z,27.04
2019-05-22T09:27:47.893Z,26.83
2019-05-22T09:33:00.686Z,26.92
2019-05-22T09:38:05.598Z,26.84
2019-05-22T09:43:10.827Z,26.52
2019-05-22T09:48:16.281Z,26.64
2019-05-22T09:53:21.723Z,26.91
2019-05-22T09:58:26.726Z,26.51
2019-05-22T10:03:31.356Z,26.44
2019-05-22T10:08:37.528Z,26.44
2019-05-22T10:13:43.674Z,25.86
2019-05-22T10:18:53.436Z,26.98
2019-05-22T10:23:58.791Z,26.89
2019-05-22T10:29:18.180Z,27.20
2019-05-22T10:34:28.573Z,27.55
2019-05-22T10:39:34.482Z,26.64
2019-05-22T10:44:40.732Z,27.07
2019-05-22T10:49:46.814Z,27.95
2019-05-22T10:54:51.577Z,27.53
2019-05-22T10:59:56.627Z,27.54
2019-05-22T11:05:01.717Z,27.88
2019-05-22T11:10:07.452Z,27.69
2019-05-22T11:15:12.184Z,27.70
2019-05-22T11:20:17.149Z,27.70
2019-05-22T11:25:22.620Z,27.72
2019-05-22T11:30:27.995Z,28.20
2019-05-22T11:35:34.177Z,27.57
2019-05-22T11:40:39.709Z,27.64
2019-05-22T11:45:45.320Z,26.99
2019-05-22T11:50:51.137Z,27.97
2019-05-22T11:55:56.011Z,28.42
2019-05-22T12:01:00.935Z,27.91
2019-05-22T12:06:05.905Z,27.82
2019-05-22T12:11:12.986Z,27.13
2019-05-22T12:16:19.978Z,27.97
2019-05-22T12:21:24.592Z,28.11
2019-05-22T12:26:29.775Z,28.20
2019-05-22T12:31:37.439Z,27.87
2019-05-22T12:36:43.586Z,28.36
2019-05-22T12:41:48.318Z,27.19
2019-05-22T12:46:53.869Z,27.46
2019-05-22T12:51:58.617Z,28.30
2019-05-22T12:57:05.106Z,27.97
2019-05-22T13:02:11.686Z,27.26
2019-05-22T13:07:18.633Z,26.05
2019-05-22T13:12:23.942Z,27.31
2019-05-22T13:17:29.050Z,27.42
2019-05-22T13:22:34.879Z,26.57
2019-05-22T13:27:39.942Z,27.14
2019-05-22T13:32:44.655Z,26.95
2019-05-22T13:37:49.406Z,27.10
2019-05-22T13:42:54.148Z,27.54
2019-05-22T13:47:58.872Z,28.14
2019-05-22T13:53:04.874Z,28.15
2019-05-22T13:58:10.970Z,28.10
2019-05-22T14:03:16.300Z,27.88
2019-05-22T14:08:21.571Z,27.90
2019-05-22T14:13:27.321Z,27.03
2019-05-22T14:18:32.176Z,28.01
2019-05-22T14:23:37.641Z,27.95
2019-05-22T14:28:43.600Z,28.60
2019-05-22T14:33:48.350Z,27.81
2019-05-22T14:38:54.036Z,28.53
2019-05-22T14:43:59.482Z,27.73
2019-05-22T14:49:05.427Z,27.79
2019-05-22T14:54:11.016Z,27.74
2019-05-22T14:59:16.474Z,27.24
2019-05-22T15:04:21.862Z,27.48
2019-05-22T15:09:27.290Z,27.84
2019-05-22T15:14:32.386Z,28.17
2019-05-22T15:19:37.292Z,27.96
2019-05-22T15:24:42.559Z,27.79
2019-05-22T15:29:47.275Z,28.22
2019-05-22T15:34:52.037Z,28.19
2019-05-22T15:39:56.836Z,27.37
2019-05-22T15:45:03.615Z,28.01
2019-05-22T15:50:09.707Z,27.67
2019-05-22T15:55:15.425Z,27.50
2019-05-22T16:00:22.012Z,26.88
2019-05-22T16:05:27.583Z,26.58
2019-05-22T16:10:32.833Z,26.89
2019-05-22T16:15:38.900Z,26.77
2019-05-22T16:20:43.650Z,26.31
2019-05-22T16:25:49.417Z,26.56
2019-05-22T16:30:55.187Z,26.17
2019-05-22T16:36:00.334Z,26.66
2019-05-22T16:41:05.765Z,26.69
2019-05-22T16:46:11.057Z,26.27
2019-05-22T16:51:17.204Z,25.85
2019-05-22T16:56:22.911Z,25.64
2019-05-22T17:01:28.049Z,25.05
2019-05-22T17:06:33.713Z,25.03
2019-05-22T17:11:38.762Z,24.38
2019-05-22T17:16:44.130Z,24.52
2019-05-22T17:21:55.209Z,24.63
2019-05-22T17:27:01.104Z,24.56
2019-05-22T17:32:07.470Z,24.73
2019-05-22T17:37:14.409Z,23.91
2019-05-22T17:42:20.379Z,23.80
2019-05-22T17:47:26.495Z,23.76
2019-05-22T17:52:31.905Z,23.61
2019-05-22T17:57:37.328Z,22.93
2019-05-22T18:02:42.440Z,21.24
2019-05-22T18:07:47.125Z,20.51
2019-05-22T18:12:51.926Z,19.72
2019-05-22T18:17:57.514Z,18.24
2019-05-22T18:23:02.854Z,17.55
2019-05-22T18:28:08.612Z,17.62
2019-05-22T18:33:13.970Z,18.76
2019-05-22T18:38:18.659Z,18.26
2019-05-22T18:43:23.485Z,19.54
2019-05-22T18:48:32.979Z,18.51
2019-05-22T18:53:36.585Z,18.91
2019-05-22T18:58:41.844Z,18.47
2019-05-22T19:03:47.508Z,19.10
2019-05-22T19:08:52.343Z,18.72
2019-05-22T19:13:57.093Z,18.23
2019-05-22T19:19:02.262Z,17.51
2019-05-22T19:24:07.399Z,17.35
2019-05-22T19:29:12.150Z,17.86
2019-05-22T19:34:17.296Z,17.84
2019-05-22T19:39:22.182Z,18.62
2019-05-22T19:44:26.884Z,18.30
2019-05-22T19:49:32.452Z,18.12
2019-05-22T19:54:38.066Z,17.90
2019-05-22T19:59:43.378Z,17.62
2019-05-22T20:04:49.751Z,17.73
2019-05-22T20:09:54.963Z,18.20
2019-05-22T20:14:59.650Z,17.67
2019-05-22T20:20:07.970Z,18.86
2019-05-22T20:25:13.132Z,17.53
2019-05-22T20:30:20.390Z,17.46
2019-05-22T20:35:25.474Z,18.16
2019-05-22T20:40:30.579Z,18.17
2019-05-22T20:45:36.297Z,18.14
2019-05-22T20:50:41.270Z,17.49
2019-05-22T20:55:47.631Z,18.55
2019-05-22T21:00:52.890Z,17.62
2019-05-22T21:05:57.634Z,17.55
2019-05-22T21:11:03.195Z,18.31
2019-05-22T21:16:07.974Z,18.07
2019-05-22T21:21:14.212Z,18.07
2019-05-22T21:26:19.058Z,18.04
2019-05-22T21:31:24.995Z,18.32
2019-05-22T21:36:30.186Z,18.35
2019-05-22T21:41:35.033Z,17.45
2019-05-22T21:46:40.086Z,17.70
2019-05-22T21:51:44.929Z,18.16
2019-05-22T21:56:50.074Z,17.08
2019-05-22T22:01:59.637Z,17.76
2019-05-22T22:07:04.873Z,17.72
2019-05-22T22:12:09.654Z,17.82
2019-05-22T22:17:14.935Z,17.90
2019-05-22T22:22:24.861Z,17.79
2019-05-22T22:27:29.721Z,17.85
2019-05-22T22:32:36.086Z,17.66
2019-05-22T22:37:41.235Z,17.42
2019-05-22T22:42:47.310Z,17.42
2019-05-22T22:47:51.942Z,17.04
2019-05-22T22:52:56.482Z,16.52
2019-05-22T22:58:16.137Z,16.63
2019-05-22T23:03:11.363Z,17.27
2019-05-22T23:08:22.299Z,16.75
2019-05-22T23:13:28.369Z,16.18
2019-05-22T23:18:43.247Z,17.28
2019-05-22T23:23:47.785Z,16.75
2019-05-22T23:28:53.966Z,16.88
2019-05-22T23:33:59.926Z,16.54
2019-05-22T23:39:08.767Z,15.96
2019-05-22T23:44:14.087Z,15.47
2019-05-22T23:49:19.694Z,14.92
2019-05-22T23:54:24.338Z,14.93
2019-05-22T23:59:30.628Z,14.89
